Time;durP1;ratioP1;P1;durP2;ratioP2;P2;SDS_P1;SDS_P2;PMS_P1;PMS_P2;Temp;Humidity;BMP_temperature;BMP_pressure;BME280_temperature;BME280_humidity;BME280_pressure;Samples;Min_cycle;Max_cycle;Signal;HPM_P1;HPM_P2
2021/01/05 00:00:50;;;;;;;21.40;14.10;;;1.10;99.90;;;;;;4862707;28;20509;-73
2021/01/05 00:03:15;;;;;;;21.00;13.83;;;1.10;99.90;;;;;;4844650;29;20422;-76
2021/01/05 00:05:41;;;;;;;23.93;15.13;;;1.10;99.90;;;;;;4862534;29;20427;-76
2021/01/05 00:08:07;;;;;;;23.38;14.77;;;1.10;99.90;;;;;;4861778;29;20417;-75
2021/01/05 00:10:32;;;;;;;23.93;14.77;;;1.10;99.90;;;;;;4867519;29;20405;-77
2021/01/05 00:13:03;;;;;;;21.60;14.88;;;1.10;99.90;;;;;;4860839;29;20424;-75
2021/01/05 00:15:30;;;;;;;23.35;13.90;;;1.10;99.90;;;;;;4866945;28;20442;-75
2021/01/05 00:17:56;;;;;;;18.57;13.03;;;1.10;99.90;;;;;;4858603;29;20416;-78
2021/01/05 00:20:31;;;;;;;20.10;14.27;;;1.10;99.90;;;;;;4859071;29;20970;-75
2021/01/05 00:22:57;;;;;;;17.92;13.07;;;1.10;99.90;;;;;;4878585;28;20409;-75
2021/01/05 00:25:24;;;;;;;19.53;13.53;;;1.10;99.90;;;;;;4879601;28;20398;-76
2021/01/05 00:27:50;;;;;;;22.58;14.10;;;1.10;99.90;;;;;;4872559;28;20437;-73
2021/01/05 00:30:18;;;;;;;22.38;15.07;;;1.10;99.90;;;;;;4875749;29;20428;-76
2021/01/05 00:32:44;;;;;;;20.17;14.00;;;1.10;99.90;;;;;;4862964;28;20414;-76
2021/01/05 00:35:11;;;;;;;24.70;14.43;;;1.10;99.90;;;;;;4865449;29;20425;-76
2021/01/05 00:37:37;;;;;;;19.10;13.55;;;1.10;99.90;;;;;;4871438;28;20469;-76
2021/01/05 00:40:04;;;;;;;18.63;13.35;;;1.10;99.90;;;;;;4887629;28;20795;-75
2021/01/05 00:42:30;;;;;;;21.10;13.63;;;1.10;99.90;;;;;;4847339;28;20435;-75
2021/01/05 00:44:56;;;;;;;19.98;13.52;;;1.10;99.90;;;;;;4859146;29;20420;-76
2021/01/05 00:47:21;;;;;;;20.70;14.35;;;1.20;99.90;;;;;;4856864;29;20572;-79
2021/01/05 00:49:47;;;;;;;20.93;14.00;;;1.10;99.90;;;;;;4873104;28;20428;-74
2021/01/05 00:52:13;;;;;;;22.73;14.38;;;1.10;99.90;;;;;;4856526;28;20430;-74
2021/01/05 00:54:38;;;;;;;20.08;13.65;;;1.10;99.90;;;;;;4860875;29;20438;-75
2021/01/05 00:57:06;;;;;;;17.73;13.53;;;1.10;99.90;;;;;;4855147;29;20419;-77
2021/01/05 00:59:35;;;;;;;21.27;14.13;;;1.10;99.90;;;;;;4852310;29;20580;-74
2021/01/05 01:02:01;;;;;;;20.60;14.40;;;1.10;99.90;;;;;;4864026;29;20425;-75
2021/01/05 01:04:29;;;;;;;21.17;13.65;;;1.10;99.90;;;;;;4867129;29;20469;-75
2021/01/05 01:06:55;;;;;;;17.38;12.70;;;1.10;99.90;;;;;;4875499;29;20837;-75
2021/01/05 01:09:21;;;;;;;25.65;14.50;;;1.10;99.90;;;;;;4855768;29;20456;-75
2021/01/05 01:11:59;;;;;;;19.27;12.47;;;1.10;99.90;;;;;;4856262;29;20520;-75
2021/01/05 01:14:24;;;;;;;21.83;13.73;;;1.10;99.90;;;;;;4861602;29;20848;-75
2021/01/05 01:16:50;;;;;;;21.48;13.15;;;1.10;99.90;;;;;;4843605;29;20406;-74
2021/01/05 01:19:16;;;;;;;19.08;13.65;;;1.10;99.90;;;;;;4847806;29;20413;-74
2021/01/05 01:21:46;;;;;;;23.37;13.47;;;1.10;99.90;;;;;;4836051;29;20421;-73
2021/01/05 01:24:12;;;;;;;22.13;13.27;;;1.10;99.90;;;;;;4856422;29;20837;-73
2021/01/05 01:26:38;;;;;;;18.30;13.73;;;1.10;99.90;;;;;;4849627;29;20413;-75
2021/01/05 01:29:03;;;;;;;21.15;13.48;;;1.10;99.90;;;;;;4857552;28;20994;-74
2021/01/05 01:31:29;;;;;;;18.77;13.60;;;1.10;99.90;;;;;;4835607;29;20440;-77
2021/01/05 01:33:55;;;;;;;21.77;12.77;;;1.10;99.90;;;;;;4859173;29;20413;-74
2021/01/05 01:36:21;;;;;;;19.23;13.33;;;1.00;99.90;;;;;;4840953;29;20424;-74
2021/01/05 01:38:47;;;;;;;20.27;13.90;;;1.00;99.90;;;;;;4840717;29;20482;-77
2021/01/05 01:41:13;;;;;;;20.95;13.23;;;1.00;99.90;;;;;;4845242;28;20429;-75
2021/01/05 01:43:38;;;;;;;18.25;13.60;;;1.10;99.90;;;;;;4837201;29;20417;-76
2021/01/05 01:46:13;;;;;;;20.67;13.45;;;1.00;99.90;;;;;;4843547;28;20476;-75
2021/01/05 01:48:42;;;;;;;23.20;13.60;;;1.10;99.90;;;;;;4851565;29;20397;-74
2021/01/05 01:51:09;;;;;;;18.77;12.83;;;1.00;99.90;;;;;;4839330;29;20409;-79
2021/01/05 01:54:21;;;;;;;19.92;12.55;;;1.00;99.90;;;;;;4870865;29;20552;-73
2021/01/05 01:57:22;;;;;;;21.73;12.63;;;1.00;99.90;;;;;;4876041;28;20492;-74
2021/01/05 02:00:11;;;;;;;19.13;13.00;;;1.00;99.90;;;;;;4865772;28;20414;-74
2021/01/05 02:03:04;;;;;;;16.95;12.52;;;1.00;99.90;;;;;;4848955;29;20430;-73
2021/01/05 02:05:50;;;;;;;18.83;12.88;;;1.00;99.90;;;;;;4852438;29;20416;-73
2021/01/05 02:08:24;;;;;;;20.75;13.38;;;1.10;99.90;;;;;;4868865;28;20474;-77
2021/01/05 02:10:54;;;;;;;20.13;12.85;;;1.00;99.90;;;;;;4860060;29;20551;-73
2021/01/05 02:13:42;;;;;;;19.48;12.45;;;1.00;99.90;;;;;;4857822;29;20420;-73
2021/01/05 02:16:37;;;;;;;20.42;13.55;;;1.00;99.90;;;;;;4874074;29;20405;-76
2021/01/05 02:19:26;;;;;;;19.63;13.07;;;1.00;99.90;;;;;;4862419;29;20409;-75
2021/01/05 02:22:15;;;;;;;21.23;13.35;;;1.00;99.90;;;;;;4839142;29;20422;-74
2021/01/05 02:24:58;;;;;;;18.67;12.60;;;1.00;99.90;;;;;;4870131;29;20464;-77
2021/01/05 02:27:24;;;;;;;20.10;12.93;;;1.00;99.90;;;;;;4840407;29;20474;-75
2021/01/05 02:29:56;;;;;;;18.08;12.52;;;1.00;99.90;;;;;;4844721;29;20756;-75
2021/01/05 02:32:55;;;;;;;20.25;13.23;;;1.00;99.90;;;;;;4873659;28;20509;-77
2021/01/05 02:35:53;;;;;;;18.05;12.18;;;1.00;99.90;;;;;;4842560;29;20895;-75
2021/01/05 02:38:47;;;;;;;20.92;13.60;;;1.00;99.90;;;;;;4865727;29;20500;-76
2021/01/05 02:41:56;;;;;;;18.73;11.88;;;1.00;99.90;;;;;;4882408;28;20429;-77
2021/01/05 02:45:12;;;;;;;18.17;11.75;;;1.00;99.90;;;;;;4877898;28;20414;-76
2021/01/05 02:48:21;;;;;;;17.75;13.07;;;1.00;99.90;;;;;;4879525;28;21112;-75
2021/01/05 02:51:24;;;;;;;16.25;12.30;;;1.00;99.90;;;;;;4868978;28;20437;-74
2021/01/05 02:54:24;;;;;;;17.60;11.75;;;1.00;99.90;;;;;;4870239;28;20480;-79
2021/01/05 02:57:36;;;;;;;16.23;11.57;;;1.00;99.90;;;;;;4864129;28;20425;-78
2021/01/05 03:00:41;;;;;;;18.33;11.98;;;1.00;99.90;;;;;;4859225;28;20776;-75
2021/01/05 03:03:45;;;;;;;20.52;12.75;;;1.00;99.90;;;;;;4859937;29;20438;-76
2021/01/05 03:06:30;;;;;;;17.38;11.40;;;1.00;99.90;;;;;;4858963;29;20533;-74
2021/01/05 03:09:24;;;;;;;18.80;12.40;;;1.00;99.90;;;;;;4872052;28;20483;-76
2021/01/05 03:12:26;;;;;;;19.60;12.55;;;1.00;99.90;;;;;;4839356;29;20414;-77
2021/01/05 03:15:19;;;;;;;19.58;11.82;;;1.00;99.90;;;;;;4874975;28;20428;-76
2021/01/05 03:18:41;;;;;;;18.97;12.77;;;1.00;99.90;;;;;;4859722;28;20468;-75
2021/01/05 03:21:27;;;;;;;17.40;11.53;;;1.00;99.90;;;;;;4877355;29;20429;-74
2021/01/05 03:24:11;;;;;;;15.23;10.93;;;1.00;99.90;;;;;;4850141;29;20781;-76
2021/01/05 03:26:55;;;;;;;20.63;11.95;;;1.10;99.90;;;;;;4862395;29;21151;-80
2021/01/05 03:29:39;;;;;;;16.70;11.88;;;1.10;99.90;;;;;;4873357;28;20469;-79
2021/01/05 03:32:24;;;;;;;17.30;12.23;;;1.00;99.90;;;;;;4897608;28;20452;-74
2021/01/05 03:35:08;;;;;;;17.42;11.35;;;1.00;99.90;;;;;;4837714;29;20472;-75
2021/01/05 03:37:56;;;;;;;17.70;11.52;;;1.00;99.90;;;;;;4854269;28;20989;-76
2021/01/05 03:40:41;;;;;;;21.65;11.52;;;1.00;99.90;;;;;;4854781;29;20472;-76
2021/01/05 03:43:25;;;;;;;21.88;12.27;;;1.00;99.90;;;;;;4868028;28;20423;-75
2021/01/05 03:46:13;;;;;;;22.93;13.23;;;1.00;99.90;;;;;;4839891;28;20494;-77
2021/01/05 03:48:58;;;;;;;16.83;12.18;;;1.00;99.90;;;;;;4854848;29;20420;-79
2021/01/05 03:51:43;;;;;;;19.35;13.10;;;1.00;99.90;;;;;;4863959;29;20448;-77
2021/01/05 03:54:28;;;;;;;15.13;11.68;;;1.00;99.90;;;;;;4885375;28;20401;-75
2021/01/05 03:57:12;;;;;;;18.88;12.05;;;1.00;99.90;;;;;;4866828;29;20948;-76
2021/01/05 03:59:56;;;;;;;16.65;12.25;;;1.00;99.90;;;;;;4867132;29;21008;-74
2021/01/05 04:02:40;;;;;;;16.77;11.68;;;1.00;99.90;;;;;;4844218;29;20941;-77
2021/01/05 04:05:08;;;;;;;18.40;12.55;;;1.00;99.90;;;;;;4884644;28;20458;-75
2021/01/05 04:07:34;;;;;;;18.17;12.27;;;1.00;99.90;;;;;;4848652;29;20412;-76
2021/01/05 04:10:00;;;;;;;19.90;12.93;;;1.00;99.90;;;;;;4849684;29;20414;-76
2021/01/05 04:12:25;;;;;;;16.02;11.65;;;1.00;99.90;;;;;;4860804;29;20500;-75
2021/01/05 04:14:51;;;;;;;18.63;12.90;;;1.00;99.90;;;;;;4855585;29;20425;-82
2021/01/05 04:17:17;;;;;;;22.37;12.03;;;1.00;99.90;;;;;;4842329;29;20470;-80
2021/01/05 04:19:42;;;;;;;18.13;12.07;;;1.00;99.90;;;;;;4844995;28;20410;-74
2021/01/05 04:22:08;;;;;;;16.37;12.27;;;0.90;99.90;;;;;;4857416;29;20538;-75
2021/01/05 04:24:34;;;;;;;18.33;11.30;;;1.00;99.90;;;;;;4859928;28;20477;-77
2021/01/05 04:26:59;;;;;;;15.52;11.73;;;1.00;99.90;;;;;;4851297;28;20403;-77
2021/01/05 04:29:25;;;;;;;20.03;11.83;;;1.00;99.90;;;;;;4845816;29;20424;-76
2021/01/05 04:31:51;;;;;;;21.23;12.73;;;1.00;99.90;;;;;;4863061;29;20415;-76
2021/01/05 04:34:16;;;;;;;16.83;11.35;;;1.10;99.90;;;;;;4846525;29;20413;-75
2021/01/05 04:36:42;;;;;;;17.37;11.93;;;1.00;99.90;;;;;;4855592;29;20772;-74
2021/01/05 04:39:08;;;;;;;16.93;11.27;;;1.00;99.90;;;;;;4845559;29;20437;-73
2021/01/05 04:41:59;;;;;;;19.48;12.13;;;1.00;99.90;;;;;;4866252;29;20423;-74
2021/01/05 04:44:24;;;;;;;16.95;11.07;;;1.00;99.90;;;;;;4851484;29;20520;-75
2021/01/05 04:47:13;;;;;;;16.67;11.13;;;1.00;99.90;;;;;;4846267;28;20455;-75
2021/01/05 04:49:58;;;;;;;18.40;12.25;;;1.00;99.90;;;;;;4871752;28;20412;-74
2021/01/05 04:52:27;;;;;;;18.13;12.15;;;1.00;99.90;;;;;;4855821;29;20440;-76
2021/01/05 04:55:16;;;;;;;18.27;11.52;;;1.00;99.90;;;;;;4853805;29;20485;-74
2021/01/05 04:57:42;;;;;;;17.88;11.45;;;1.00;99.90;;;;;;4826484;29;20420;-74
2021/01/05 05:00:18;;;;;;;16.87;11.30;;;1.00;99.90;;;;;;4866046;29;20492;-77
2021/01/05 05:02:49;;;;;;;18.75;11.25;;;1.00;99.90;;;;;;4867155;28;20452;-76
2021/01/05 05:05:24;;;;;;;14.95;10.90;;;1.00;99.90;;;;;;4863161;28;20416;-76
2021/01/05 05:08:12;;;;;;;21.65;12.65;;;0.90;99.90;;;;;;4882026;29;20419;-75
2021/01/05 05:11:02;;;;;;;16.13;11.27;;;0.90;99.90;;;;;;4862674;29;20419;-75
2021/01/05 05:14:03;;;;;;;16.80;11.95;;;1.00;99.90;;;;;;4854241;29;20790;-77
2021/01/05 05:16:44;;;;;;;21.00;12.50;;;0.90;99.90;;;;;;4879793;29;20405;-76
2021/01/05 05:19:48;;;;;;;17.80;12.02;;;0.90;99.90;;;;;;4867448;29;20425;-75
2021/01/05 05:22:44;;;;;;;15.60;11.10;;;0.90;99.90;;;;;;4873617;29;20501;-76
2021/01/05 05:25:14;;;;;;;18.20;11.20;;;1.00;99.90;;;;;;4850774;29;20464;-81
2021/01/05 05:27:47;;;;;;;18.95;12.48;;;0.90;99.90;;;;;;4836475;29;20412;-75
2021/01/05 05:30:17;;;;;;;19.38;11.27;;;0.90;99.90;;;;;;4837521;29;20495;-78
2021/01/05 05:32:53;;;;;;;16.65;10.70;;;0.90;99.90;;;;;;4852281;29;20417;-75
2021/01/05 05:35:41;;;;;;;18.07;10.97;;;0.90;99.90;;;;;;4846061;29;20409;-74
2021/01/05 05:38:26;;;;;;;16.88;12.25;;;0.90;99.90;;;;;;4865155;29;20418;-75
2021/01/05 05:41:24;;;;;;;15.90;10.98;;;0.90;99.90;;;;;;4855343;29;20409;-76
2021/01/05 05:44:12;;;;;;;19.42;11.40;;;0.90;99.90;;;;;;4927505;28;20457;-75
2021/01/05 05:46:44;;;;;;;15.82;10.75;;;0.90;99.90;;;;;;4879587;28;20504;-75
2021/01/05 05:49:16;;;;;;;15.57;10.90;;;1.00;99.90;;;;;;4871888;29;20407;-73
2021/01/05 05:51:47;;;;;;;16.65;11.52;;;1.00;99.90;;;;;;4864166;29;20422;-73
2021/01/05 05:54:19;;;;;;;16.25;10.63;;;0.90;99.90;;;;;;4866708;29;20409;-77
2021/01/05 05:57:02;;;;;;;15.10;10.70;;;0.90;99.90;;;;;;4879994;29;20424;-73
2021/01/05 05:59:35;;;;;;;19.35;11.18;;;0.90;99.90;;;;;;4838071;29;20446;-75
2021/01/05 06:02:00;;;;;;;18.50;10.77;;;0.90;99.90;;;;;;4842803;29;20483;-74
2021/01/05 06:04:26;;;;;;;16.05;11.27;;;0.90;99.90;;;;;;4859357;29;20818;-73
2021/01/05 06:06:52;;;;;;;14.43;10.50;;;1.00;99.90;;;;;;4854243;28;20986;-74
2021/01/05 06:09:18;;;;;;;14.27;10.30;;;0.90;99.90;;;;;;4831602;29;20411;-74
2021/01/05 06:12:02;;;;;;;16.67;11.82;;;1.00;99.90;;;;;;4849242;29;20476;-74
2021/01/05 06:14:27;;;;;;;17.00;11.05;;;0.90;99.90;;;;;;4837108;29;20404;-75
2021/01/05 06:16:53;;;;;;;13.75;10.25;;;1.00;99.90;;;;;;4849541;29;20417;-73
2021/01/05 06:19:20;;;;;;;14.98;10.82;;;1.00;99.90;;;;;;4841712;29;20432;-74
2021/01/05 06:21:45;;;;;;;16.13;10.55;;;1.00;99.90;;;;;;4838730;29;20420;-73
2021/01/05 06:24:11;;;;;;;15.48;10.45;;;1.00;99.90;;;;;;4845641;28;20429;-74
2021/01/05 06:26:37;;;;;;;20.07;11.93;;;1.00;99.90;;;;;;4841479;29;20429;-75
2021/01/05 06:29:03;;;;;;;12.63;9.88;;;1.00;99.90;;;;;;4874317;28;20503;-75
2021/01/05 06:31:28;;;;;;;16.17;10.43;;;1.00;99.90;;;;;;4854398;29;20403;-76
2021/01/05 06:33:54;;;;;;;12.27;9.57;;;0.90;99.90;;;;;;4861642;29;20401;-76
2021/01/05 06:36:19;;;;;;;15.25;10.60;;;1.00;99.90;;;;;;4822279;29;20412;-75
2021/01/05 06:38:46;;;;;;;13.55;9.88;;;1.10;99.90;;;;;;4836056;29;20429;-75
2021/01/05 06:41:12;;;;;;;12.97;8.13;;;0.90;99.90;;;;;;4874275;29;20482;-76
2021/01/05 06:43:38;;;;;;;11.85;9.00;;;1.00;99.90;;;;;;4876282;28;20401;-76
2021/01/05 06:46:03;;;;;;;15.65;9.98;;;1.00;99.90;;;;;;4833217;29;21116;-74
2021/01/05 06:48:29;;;;;;;14.43;10.13;;;1.00;99.90;;;;;;4861258;29;20413;-75
2021/01/05 06:50:55;;;;;;;14.47;9.73;;;1.00;99.90;;;;;;4830363;29;20813;-74
2021/01/05 06:53:20;;;;;;;13.35;9.68;;;1.00;99.90;;;;;;4850310;29;21276;-75
2021/01/05 06:55:46;;;;;;;14.73;10.57;;;0.90;99.90;;;;;;4837822;29;20418;-75
2021/01/05 06:58:12;;;;;;;13.43;8.43;;;0.90;99.90;;;;;;4841230;29;20468;-74
2021/01/05 07:00:37;;;;;;;11.07;8.82;;;0.90;99.90;;;;;;4838645;29;20409;-75
2021/01/05 07:03:06;;;;;;;12.80;9.63;;;0.90;99.90;;;;;;4842615;29;20421;-74
2021/01/05 07:05:32;;;;;;;9.88;8.10;;;0.90;99.90;;;;;;4860470;29;20428;-74
2021/01/05 07:07:57;;;;;;;12.87;9.30;;;1.00;99.90;;;;;;4865994;29;20490;-75
2021/01/05 07:10:23;;;;;;;10.57;8.15;;;1.00;99.90;;;;;;4863557;29;20479;-75
2021/01/05 07:12:49;;;;;;;14.23;9.77;;;1.00;99.90;;;;;;4843590;29;20790;-76
2021/01/05 07:15:16;;;;;;;10.43;8.02;;;1.00;99.90;;;;;;4824614;29;20492;-74
2021/01/05 07:17:42;;;;;;;11.40;8.40;;;1.00;99.90;;;;;;4840948;29;20449;-74
2021/01/05 07:20:08;;;;;;;11.23;9.27;;;1.00;99.90;;;;;;4926589;28;20445;-76
2021/01/05 07:22:34;;;;;;;12.82;9.27;;;1.00;99.90;;;;;;4873589;29;20424;-76
2021/01/05 07:25:00;;;;;;;12.55;9.43;;;1.00;99.90;;;;;;4837440;29;20424;-75
2021/01/05 07:27:26;;;;;;;10.30;8.43;;;1.00;99.90;;;;;;4870548;29;20425;-74
2021/01/05 07:29:53;;;;;;;16.38;9.50;;;0.90;99.90;;;;;;4890639;28;20495;-75
2021/01/05 07:32:18;;;;;;;13.68;9.13;;;1.00;99.90;;;;;;4864636;29;20940;-73
2021/01/05 07:34:44;;;;;;;13.90;9.20;;;1.00;99.90;;;;;;4861875;29;20452;-73
2021/01/05 07:37:14;;;;;;;12.43;9.37;;;1.00;99.90;;;;;;4821737;29;20429;-75
2021/01/05 07:39:39;;;;;;;11.80;8.88;;;1.10;99.90;;;;;;4822963;29;20559;-74
2021/01/05 07:42:16;;;;;;;13.53;9.40;;;1.00;99.90;;;;;;4852284;29;20436;-73
2021/01/05 07:44:42;;;;;;;13.75;8.52;;;1.10;99.90;;;;;;4869048;28;20452;-75
2021/01/05 07:47:08;;;;;;;10.95;8.30;;;1.10;99.90;;;;;;4849406;29;20472;-74
2021/01/05 07:49:34;;;;;;;14.50;9.85;;;1.10;99.90;;;;;;4869489;29;20421;-75
2021/01/05 07:52:00;;;;;;;12.57;8.95;;;1.20;99.90;;;;;;4857266;29;20424;-74
2021/01/05 07:54:25;;;;;;;12.52;9.65;;;1.10;99.90;;;;;;4878337;29;20440;-73
2021/01/05 07:56:51;;;;;;;11.93;8.50;;;1.10;99.90;;;;;;4859076;29;20421;-73
2021/01/05 07:59:18;;;;;;;12.73;9.05;;;1.10;99.90;;;;;;4858103;29;20434;-72
2021/01/05 08:01:47;;;;;;;12.95;9.50;;;1.10;99.90;;;;;;4875676;29;20439;-74
2021/01/05 08:04:12;;;;;;;11.95;9.00;;;1.10;99.90;;;;;;4872374;28;20444;-74
2021/01/05 08:06:42;;;;;;;13.48;8.85;;;1.00;99.90;;;;;;4828428;29;20436;-74
2021/01/05 08:09:08;;;;;;;12.75;8.73;;;1.00;99.90;;;;;;4864053;29;20416;-75
2021/01/05 08:11:35;;;;;;;11.17;8.27;;;1.00;99.90;;;;;;4870897;28;20407;-76
2021/01/05 08:14:01;;;;;;;13.63;8.70;;;1.00;99.90;;;;;;4877187;29;21088;-74
2021/01/05 08:16:26;;;;;;;11.57;8.17;;;1.00;99.90;;;;;;4876814;29;20461;-75
2021/01/05 08:18:52;;;;;;;12.35;8.68;;;1.00;99.90;;;;;;4857442;29;20425;-74
2021/01/05 08:21:24;;;;;;;13.73;9.10;;;0.90;99.90;;;;;;4869464;28;20419;-73
2021/01/05 08:23:50;;;;;;;11.35;8.20;;;0.90;99.90;;;;;;4844741;29;20416;-74
2021/01/05 08:26:16;;;;;;;11.60;8.18;;;0.90;99.90;;;;;;4846355;29;20451;-75
2021/01/05 08:28:42;;;;;;;12.53;8.00;;;0.90;99.90;;;;;;4864201;29;20477;-74
2021/01/05 08:31:07;;;;;;;10.82;7.53;;;1.00;99.90;;;;;;4876645;28;20833;-75
2021/01/05 08:33:33;;;;;;;10.80;7.65;;;1.10;99.90;;;;;;4895663;28;20405;-74
2021/01/05 08:35:59;;;;;;;11.83;7.70;;;1.00;99.90;;;;;;4869435;28;20457;-75
2021/01/05 08:38:25;;;;;;;11.50;7.15;;;1.00;99.90;;;;;;4871809;28;20487;-74
2021/01/05 08:40:50;;;;;;;9.98;7.15;;;1.00;99.90;;;;;;4863494;29;20409;-75
2021/01/05 08:43:16;;;;;;;11.17;7.10;;;1.10;99.90;;;;;;4861813;29;20440;-73
2021/01/05 08:45:42;;;;;;;12.00;7.68;;;1.10;99.90;;;;;;4863056;29;20470;-74
2021/01/05 08:48:08;;;;;;;11.68;7.53;;;1.10;99.90;;;;;;4873372;29;20415;-74
2021/01/05 08:50:34;;;;;;;11.45;8.07;;;1.00;99.90;;;;;;4850817;29;20921;-74
2021/01/05 08:53:01;;;;;;;9.55;7.20;;;1.00;99.90;;;;;;4867196;29;20533;-74
2021/01/05 08:55:27;;;;;;;9.75;6.88;;;1.10;99.90;;;;;;4854594;29;20464;-73
2021/01/05 08:57:53;;;;;;;10.20;7.22;;;1.10;99.90;;;;;;4846513;29;20791;-73
2021/01/05 09:00:19;;;;;;;11.10;7.63;;;1.10;99.90;;;;;;4868708;28;20421;-74
2021/01/05 09:02:45;;;;;;;9.57;7.20;;;1.10;99.90;;;;;;4876768;28;20441;-73
2021/01/05 09:05:11;;;;;;;9.15;7.18;;;1.10;99.90;;;;;;4877147;28;20421;-74
2021/01/05 09:07:37;;;;;;;11.90;8.07;;;1.10;99.90;;;;;;4863546;29;20859;-75
2021/01/05 09:10:04;;;;;;;12.87;8.37;;;1.10;99.90;;;;;;4862774;29;20497;-75
2021/01/05 09:12:32;;;;;;;13.20;7.88;;;1.10;99.90;;;;;;4868785;29;20506;-75
2021/01/05 09:14:58;;;;;;;13.52;8.07;;;1.10;99.90;;;;;;4859575;29;20944;-75
2021/01/05 09:17:23;;;;;;;11.57;7.78;;;1.00;99.90;;;;;;4846383;29;20413;-73
2021/01/05 09:19:49;;;;;;;13.43;8.60;;;1.00;99.90;;;;;;4874742;28;20414;-74
2021/01/05 09:22:15;;;;;;;14.07;8.57;;;1.10;99.90;;;;;;4860644;29;20932;-74
2021/01/05 09:24:40;;;;;;;10.25;8.27;;;1.10;99.90;;;;;;4880473;28;20451;-74
2021/01/05 09:27:06;;;;;;;10.40;7.97;;;1.10;99.90;;;;;;4863969;28;20510;-74
2021/01/05 09:29:32;;;;;;;12.00;8.13;;;1.20;99.90;;;;;;4883870;28;21027;-75
2021/01/05 09:31:58;;;;;;;14.07;8.95;;;1.20;99.90;;;;;;4855715;29;20409;-74
2021/01/05 09:34:25;;;;;;;14.27;10.53;;;1.20;99.90;;;;;;4846605;29;20425;-77
2021/01/05 09:36:51;;;;;;;15.77;11.20;;;1.20;99.90;;;;;;4857267;29;20407;-75
2021/01/05 09:39:19;;;;;;;16.05;10.00;;;1.10;99.90;;;;;;4871473;29;20516;-73
2021/01/05 09:41:47;;;;;;;11.82;8.98;;;1.10;99.90;;;;;;4873502;29;20948;-74
2021/01/05 09:44:13;;;;;;;11.60;9.20;;;1.20;99.90;;;;;;4867041;28;20480;-74
2021/01/05 09:46:39;;;;;;;12.02;8.38;;;1.10;99.90;;;;;;4848123;29;20458;-74
2021/01/05 09:49:13;;;;;;;11.32;8.95;;;1.10;99.90;;;;;;4864477;29;20413;-75
2021/01/05 09:51:39;;;;;;;12.48;8.82;;;1.10;99.90;;;;;;4837059;29;20491;-74
2021/01/05 09:54:05;;;;;;;11.10;8.03;;;1.20;99.90;;;;;;4846544;29;20427;-74
2021/01/05 09:56:31;;;;;;;12.23;8.97;;;1.20;99.90;;;;;;4885839;28;20397;-73
2021/01/05 09:58:57;;;;;;;15.77;8.63;;;1.10;99.90;;;;;;4849943;29;20419;-74
2021/01/05 10:01:24;;;;;;;14.20;8.73;;;1.20;99.90;;;;;;4867824;28;20417;-73
2021/01/05 10:03:50;;;;;;;12.45;9.10;;;1.20;99.90;;;;;;4857431;29;20402;-74
2021/01/05 10:06:16;;;;;;;12.80;8.30;;;1.20;99.90;;;;;;4873073;28;20896;-74
2021/01/05 10:08:41;;;;;;;11.77;8.45;;;1.20;99.90;;;;;;4851180;29;20511;-74
2021/01/05 10:11:07;;;;;;;16.77;9.27;;;1.20;99.90;;;;;;4844086;29;20487;-74
2021/01/05 10:13:33;;;;;;;15.60;8.88;;;1.20;99.90;;;;;;4843400;29;20409;-74
2021/01/05 10:15:58;;;;;;;11.70;8.40;;;1.20;99.90;;;;;;4873203;29;20415;-76
2021/01/05 10:18:24;;;;;;;12.17;7.93;;;1.20;99.90;;;;;;4869643;29;20411;-74
2021/01/05 10:20:50;;;;;;;14.90;9.20;;;1.20;99.90;;;;;;4842448;29;20416;-74
2021/01/05 10:23:16;;;;;;;11.80;7.82;;;1.20;99.90;;;;;;4853591;29;20548;-73
2021/01/05 10:25:41;;;;;;;14.47;9.70;;;1.30;99.90;;;;;;4845328;29;20409;-73
2021/01/05 10:28:07;;;;;;;19.40;13.48;;;1.30;99.90;;;;;;4862177;28;20425;-73
2021/01/05 10:30:33;;;;;;;11.07;8.27;;;1.30;99.90;;;;;;4817972;29;20413;-72
2021/01/05 10:32:58;;;;;;;10.77;7.37;;;1.30;99.90;;;;;;4863373;28;20424;-74
2021/01/05 10:35:24;;;;;;;7.97;6.72;;;1.30;99.90;;;;;;4874749;28;20412;-74
2021/01/05 10:37:50;;;;;;;10.67;8.17;;;1.40;99.90;;;;;;4836745;29;20532;-74
2021/01/05 10:40:16;;;;;;;10.90;8.10;;;1.40;99.90;;;;;;4853357;28;20412;-73
2021/01/05 10:42:43;;;;;;;9.63;7.47;;;1.40;99.90;;;;;;4872491;28;20423;-73
2021/01/05 10:45:10;;;;;;;11.10;8.02;;;1.40;99.90;;;;;;4894915;28;20431;-74
2021/01/05 10:47:35;;;;;;;8.02;6.85;;;1.50;99.90;;;;;;4843435;29;20479;-73
2021/01/05 10:50:03;;;;;;;8.05;7.00;;;1.40;99.90;;;;;;4856430;29;20822;-74
2021/01/05 10:52:28;;;;;;;10.38;7.60;;;1.50;99.90;;;;;;4838428;29;20853;-73
2021/01/05 10:54:54;;;;;;;9.20;7.23;;;1.50;99.90;;;;;;4870634;29;20428;-73
2021/01/05 10:57:20;;;;;;;10.98;7.65;;;1.50;99.90;;;;;;4852315;29;20497;-74
2021/01/05 10:59:45;;;;;;;12.35;7.90;;;1.40;99.90;;;;;;4840799;29;20405;-74
2021/01/05 11:02:11;;;;;;;10.67;7.73;;;1.40;99.90;;;;;;4847676;29;20500;-74
2021/01/05 11:04:37;;;;;;;9.75;7.65;;;1.40;99.90;;;;;;4856262;28;21032;-74
2021/01/05 11:07:05;;;;;;;11.73;7.97;;;1.50;99.90;;;;;;4864442;29;20422;-74
2021/01/05 11:09:31;;;;;;;11.18;8.32;;;1.40;99.90;;;;;;4866395;28;20426;-74
2021/01/05 11:12:01;;;;;;;12.30;7.70;;;1.40;99.90;;;;;;4874610;28;20407;-74
2021/01/05 11:14:26;;;;;;;11.35;8.20;;;1.40;99.90;;;;;;4866073;29;20417;-74
2021/01/05 11:16:53;;;;;;;10.43;7.80;;;1.40;99.90;;;;;;4848521;29;20429;-73
2021/01/05 11:19:18;;;;;;;10.57;8.55;;;1.40;99.90;;;;;;4853574;28;20913;-73
2021/01/05 11:21:55;;;;;;;12.68;8.13;;;1.40;99.90;;;;;;4876038;28;20440;-73
2021/01/05 11:24:20;;;;;;;11.55;8.07;;;1.40;99.90;;;;;;4829824;28;20479;-74
2021/01/05 11:26:47;;;;;;;10.00;8.25;;;1.40;99.90;;;;;;4865492;29;21017;-74
2021/01/05 11:29:13;;;;;;;11.52;8.30;;;1.40;99.90;;;;;;4907616;28;20408;-73
2021/01/05 11:31:38;;;;;;;11.75;8.25;;;1.40;99.90;;;;;;4848400;29;21026;-73
2021/01/05 11:34:04;;;;;;;9.67;7.47;;;1.50;99.90;;;;;;4856524;29;20821;-74
2021/01/05 11:36:30;;;;;;;8.77;6.97;;;1.50;99.90;;;;;;4832000;29;20437;-73
2021/01/05 11:38:56;;;;;;;10.32;7.65;;;1.50;99.90;;;;;;4835419;29;20446;-73
2021/01/05 11:41:35;;;;;;;9.73;7.53;;;1.60;99.90;;;;;;4841495;29;20414;-74
2021/01/05 11:44:01;;;;;;;8.40;6.85;;;1.50;99.90;;;;;;4886445;28;20761;-73
2021/01/05 11:46:26;;;;;;;9.87;7.10;;;1.50;99.90;;;;;;4842816;29;20372;-74
2021/01/05 11:48:52;;;;;;;8.67;6.60;;;1.50;99.90;;;;;;4878697;28;20452;-74
2021/01/05 11:51:26;;;;;;;9.20;7.32;;;1.60;99.90;;;;;;4869867;29;20410;-74
2021/01/05 11:53:52;;;;;;;10.90;6.78;;;1.50;99.90;;;;;;4883682;28;20748;-73
2021/01/05 11:56:19;;;;;;;9.27;6.60;;;1.40;99.90;;;;;;4838713;29;20560;-74
2021/01/05 11:58:45;;;;;;;9.13;6.45;;;1.40;99.90;;;;;;4864638;28;20418;-73
2021/01/05 12:01:11;;;;;;;9.30;7.07;;;1.40;99.90;;;;;;4844619;29;20909;-73
2021/01/05 12:03:37;;;;;;;9.13;6.97;;;1.40;99.90;;;;;;4853492;29;20925;-74
2021/01/05 12:06:03;;;;;;;7.67;6.00;;;1.40;99.90;;;;;;4863599;29;20460;-73
2021/01/05 12:08:28;;;;;;;10.50;7.20;;;1.40;99.90;;;;;;4847526;29;20444;-74
2021/01/05 12:10:54;;;;;;;8.37;6.67;;;1.30;99.90;;;;;;4875931;29;20400;-73
2021/01/05 12:13:20;;;;;;;9.33;7.93;;;1.30;99.90;;;;;;4848153;29;20417;-75
2021/01/05 12:15:45;;;;;;;7.90;6.57;;;1.30;99.90;;;;;;4848289;29;20419;-75
2021/01/05 12:18:11;;;;;;;8.20;6.30;;;1.20;99.90;;;;;;4860478;29;20806;-73
2021/01/05 12:20:39;;;;;;;9.05;6.85;;;1.30;99.90;;;;;;4837258;29;20435;-74
2021/01/05 12:23:04;;;;;;;9.10;7.00;;;1.30;99.90;;;;;;4842438;29;20472;-73
2021/01/05 12:25:31;;;;;;;8.15;6.45;;;1.40;99.90;;;;;;4846698;29;20437;-73
2021/01/05 12:27:57;;;;;;;9.32;6.78;;;1.40;99.90;;;;;;4856209;29;20524;-74
2021/01/05 12:30:23;;;;;;;9.10;5.90;;;1.40;99.90;;;;;;4823398;29;20517;-75
2021/01/05 12:32:48;;;;;;;8.10;7.03;;;1.40;99.90;;;;;;4841356;29;20455;-74
2021/01/05 12:35:14;;;;;;;9.47;6.70;;;1.50;99.90;;;;;;4820708;29;20454;-74
2021/01/05 12:37:40;;;;;;;7.68;5.65;;;1.50;99.90;;;;;;4846755;29;20420;-75
2021/01/05 12:40:06;;;;;;;7.20;5.43;;;1.50;99.90;;;;;;4848174;28;20527;-75
2021/01/05 12:42:32;;;;;;;7.63;5.95;;;1.60;99.90;;;;;;4816839;29;20555;-74
2021/01/05 12:44:57;;;;;;;6.23;5.00;;;1.60;99.90;;;;;;4852156;29;20401;-76
2021/01/05 12:47:24;;;;;;;6.47;5.43;;;1.60;99.90;;;;;;4863748;28;20443;-75
2021/01/05 12:49:51;;;;;;;6.55;5.40;;;1.60;99.90;;;;;;4846794;29;20437;-76
2021/01/05 12:52:17;;;;;;;6.30;5.57;;;1.60;99.90;;;;;;4868473;28;20799;-76
2021/01/05 12:54:43;;;;;;;6.17;5.07;;;1.60;99.90;;;;;;4867073;28;20432;-75
2021/01/05 12:57:10;;;;;;;5.88;4.70;;;1.50;99.90;;;;;;4849331;29;20776;-75
2021/01/05 12:59:36;;;;;;;7.47;6.00;;;1.60;99.90;;;;;;4822792;29;20483;-76
2021/01/05 13:02:07;;;;;;;10.25;7.47;;;1.50;99.90;;;;;;4821696;29;20439;-76
2021/01/05 13:04:32;;;;;;;8.57;7.28;;;1.50;99.90;;;;;;4844064;29;20414;-75